Cote D IVoirian Star — A8SL4 — position and weather

sailwx.info

Track history (hours):
 
Tides and Currents Weather Stations Pressure Air Temp Water Temp Dewpoint Dewpoint Depression Visibility Wind Speed Wind Dir Waves Ship Positions

Cote D IVoirian Star

Last reported at 2017-Jan-15 16:30 UTC. Time now 2017-Jan-19 06:40 UTC.
Position N 05°18' W 004°01'.

Length 185 m; draft 7.9 m.

Type: Cargo ship. MMSI: 636014241.

Date/timePositionNaut miles runAvg speedWind from/ knotsBaromVisibWave heightAir tempDewpointWater temp
2017-Jan-15 16:30N 05°18' W 004°01'1 0.1
2017-Jan-15 03:10N 05°19' W 004°01'3 4.3
2017-Jan-15 02:29N 05°16' W 004°01'17 7.3
2017-Jan-15 00:05N 05°02' W 004°12'  
2017-Jan-10 09:25N 27°48' W 016°22'3517.2
2017-Jan-10 07:25N 28°19' W 016°03'1517.9
2017-Jan-10 06:33N 28°30' W 015°52'1817.8
2017-Jan-10 05:33N 28°46' W 015°42'1817.8
2017-Jan-10 04:33N 29°03' W 015°37'1817.7
2017-Jan-10 03:33N 29°20' W 015°31'1817.7
2017-Jan-10 02:33N 29°37' W 015°26'1817.6
2017-Jan-10 01:33N 29°54' W 015°20'1817.6
2017-Jan-10 00:33N 30°11' W 015°14'1817.6
2017-Jan-09 23:33N 30°28' W 015°09'1817.5
2017-Jan-09 22:33N 30°45' W 015°03'1817.6
2017-Jan-09 21:33N 31°01' W 014°57'1817.7
2017-Jan-09 20:33N 31°19' W 014°52'1717.3
2017-Jan-09 19:33N 31°35' W 014°46'1717.1
2017-Jan-09 18:33N 31°52' W 014°41'2017.5
2017-Jan-09 17:25N 32°11' W 014°34'1617.4
2017-Jan-09 16:30N 32°26' W 014°29'2017.5
2017-Jan-09 15:23N 32°45' W 014°23'12017.5
2017-Jan-09 08:31N 34°40' W 013°43'3317.0
2017-Jan-09 06:33N 35°13' W 013°32'1717.2
2017-Jan-09 05:33N 35°29' W 013°26'  
2017-Jan-06 20:31N 49°44' W 003°34'1717.7
2017-Jan-06 19:33N 49°52' W 003°11'1818.1
2017-Jan-06 18:33N 49°60' W 002°46'3517.5
2017-Jan-06 16:33N 50°10' W 001°54'1615.8
2017-Jan-06 15:34N 50°15' W 001°31'4414.7
2017-Jan-06 12:33N 50°24' W 000°23'1615.7
2017-Jan-06 11:33N 50°29' E 000°00'1816.8
2017-Jan-06 10:30N 50°33' E 000°27'3316.9
2017-Jan-06 08:33N 50°50' E 001°12'1615.8
2017-Jan-06 07:33N 51°02' E 001°28'1514.7
2017-Jan-06 06:33N 51°13' E 001°44'1515.1
2017-Jan-06 05:33N 51°25' E 001°60'1615.7
2017-Jan-06 04:33N 51°22' E 002°24'1514.8
2017-Jan-06 03:33N 51°22' E 002°48'1515.1
2017-Jan-06 02:33N 51°24' E 003°12'1414.3
2017-Jan-06 01:33N 51°26' E 003°35'1211.7
2017-Jan-06 00:33N 51°21' E 003°52'10 9.9
2017-Jan-05 23:33N 51°22' E 004°08'9 9.1
2017-Jan-05 22:33N 51°16' E 004°18'1 1.0
2017-Jan-05 21:33N 51°16' E 004°16'1 1.1
2017-Jan-05 20:33N 51°16' E 004°15'0 0.0
2017-Jan-05 19:33N 51°16' E 004°15'0 0.0
2017-Jan-05 18:33N 51°16' E 004°15'0 0.0
2017-Jan-05 17:33N 51°16' E 004°15'0 0.0
2017-Jan-05 16:33N 51°16' E 004°15'  
Track history (hours):
 
Tides and Currents Weather Stations Pressure Air Temp Water Temp Dewpoint Dewpoint Depression Visibility Wind Speed Wind Dir Waves Ship Positions

Cote D IVoirian Star

Last reported at 2017-Jan-15 16:30 UTC. Time now 2017-Jan-19 06:40 UTC.
Position N 05°18' W 004°01'.

Length 185 m; draft 7.9 m.

Type: Cargo ship. MMSI: 636014241.

Date/timePositionNaut miles runAvg speedWind from/ knotsBaromVisibWave heightAir tempDewpointWater temp
2017-Jan-15 16:30N 05°18' W 004°01'1 0.1
2017-Jan-15 03:10N 05°19' W 004°01'3 4.3
2017-Jan-15 02:29N 05°16' W 004°01'17 7.3
2017-Jan-15 00:05N 05°02' W 004°12'  
2017-Jan-10 09:25N 27°48' W 016°22'3517.2
2017-Jan-10 07:25N 28°19' W 016°03'1517.9
2017-Jan-10 06:33N 28°30' W 015°52'1817.8
2017-Jan-10 05:33N 28°46' W 015°42'1817.8
2017-Jan-10 04:33N 29°03' W 015°37'1817.7
2017-Jan-10 03:33N 29°20' W 015°31'1817.7
2017-Jan-10 02:33N 29°37' W 015°26'1817.6
2017-Jan-10 01:33N 29°54' W 015°20'1817.6
2017-Jan-10 00:33N 30°11' W 015°14'1817.6
2017-Jan-09 23:33N 30°28' W 015°09'1817.5
2017-Jan-09 22:33N 30°45' W 015°03'1817.6
2017-Jan-09 21:33N 31°01' W 014°57'1817.7
2017-Jan-09 20:33N 31°19' W 014°52'1717.3
2017-Jan-09 19:33N 31°35' W 014°46'1717.1
2017-Jan-09 18:33N 31°52' W 014°41'2017.5
2017-Jan-09 17:25N 32°11' W 014°34'1617.4
2017-Jan-09 16:30N 32°26' W 014°29'2017.5
2017-Jan-09 15:23N 32°45' W 014°23'12017.5
2017-Jan-09 08:31N 34°40' W 013°43'3317.0
2017-Jan-09 06:33N 35°13' W 013°32'1717.2
2017-Jan-09 05:33N 35°29' W 013°26'  
2017-Jan-06 20:31N 49°44' W 003°34'1717.7
2017-Jan-06 19:33N 49°52' W 003°11'1818.1
2017-Jan-06 18:33N 49°60' W 002°46'3517.5
2017-Jan-06 16:33N 50°10' W 001°54'1615.8
2017-Jan-06 15:34N 50°15' W 001°31'4414.7
2017-Jan-06 12:33N 50°24' W 000°23'1615.7
2017-Jan-06 11:33N 50°29' E 000°00'1816.8
2017-Jan-06 10:30N 50°33' E 000°27'3316.9
2017-Jan-06 08:33N 50°50' E 001°12'1615.8
2017-Jan-06 07:33N 51°02' E 001°28'1514.7
2017-Jan-06 06:33N 51°13' E 001°44'1515.1
2017-Jan-06 05:33N 51°25' E 001°60'1615.7
2017-Jan-06 04:33N 51°22' E 002°24'1514.8
2017-Jan-06 03:33N 51°22' E 002°48'1515.1
2017-Jan-06 02:33N 51°24' E 003°12'1414.3
2017-Jan-06 01:33N 51°26' E 003°35'1211.7
2017-Jan-06 00:33N 51°21' E 003°52'10 9.9
2017-Jan-05 23:33N 51°22' E 004°08'9 9.1
2017-Jan-05 22:33N 51°16' E 004°18'1 1.0
2017-Jan-05 21:33N 51°16' E 004°16'1 1.1
2017-Jan-05 20:33N 51°16' E 004°15'0 0.0
2017-Jan-05 19:33N 51°16' E 004°15'0 0.0
2017-Jan-05 18:33N 51°16' E 004°15'0 0.0
2017-Jan-05 17:33N 51°16' E 004°15'0 0.0
2017-Jan-05 16:33N 51°16' E 004°15'  

Dump ship's entire track history